createdAt,value
2018-05-02T00:01:15.398Z,0.00
2018-05-02T00:02:15.089Z,0.00
2018-05-02T00:03:15.920Z,0.00
2018-05-02T00:04:36.597Z,0.00
2018-05-02T00:05:36.427Z,0.00
2018-05-02T00:06:36.207Z,0.00
2018-05-02T00:07:37.954Z,0.00
2018-05-02T00:08:36.657Z,0.00
2018-05-02T00:09:36.765Z,0.00
2018-05-02T00:10:56.989Z,0.00
2018-05-02T00:11:57.806Z,0.00
2018-05-02T00:12:57.703Z,0.00
2018-05-02T00:13:57.401Z,0.00
2018-05-02T00:14:57.359Z,0.00
2018-05-02T00:15:57.530Z,0.00
2018-05-02T00:16:57.276Z,0.00
2018-05-02T00:17:56.936Z,0.00
2018-05-02T00:18:58.097Z,0.00
2018-05-02T00:19:56.921Z,0.00
2018-05-02T00:20:57.907Z,0.00
2018-05-02T00:21:57.974Z,0.00
2018-05-02T00:22:58.001Z,0.00
2018-05-02T00:23:57.299Z,0.00
2018-05-02T00:24:57.510Z,0.00
2018-05-02T00:25:57.039Z,0.00
2018-05-02T00:26:56.698Z,0.00
2018-05-02T00:27:57.359Z,0.00
2018-05-02T00:28:57.392Z,0.00
2018-05-02T00:29:56.984Z,0.00
2018-05-02T00:30:57.611Z,0.00
2018-05-02T00:32:19.994Z,0.00
2018-05-02T00:33:19.504Z,0.00
2018-05-02T00:34:20.285Z,0.00
2018-05-02T00:35:20.009Z,0.00
2018-05-02T00:36:20.023Z,0.00
2018-05-02T00:37:21.389Z,0.00
2018-05-02T00:38:20.551Z,0.00
2018-05-02T00:39:20.226Z,0.00
2018-05-02T00:40:41.024Z,0.00
2018-05-02T00:41:46.248Z,0.00
2018-05-02T00:42:41.515Z,0.00
2018-05-02T00:43:41.986Z,0.00
2018-05-02T00:45:03.691Z,0.00
2018-05-02T00:46:04.085Z,0.00
2018-05-02T00:47:05.330Z,0.00
2018-05-02T00:48:05.708Z,0.00
2018-05-02T00:49:04.663Z,0.00
2018-05-02T00:50:08.453Z,0.00
2018-05-02T00:51:03.437Z,0.00
2018-05-02T00:52:03.687Z,0.00
2018-05-02T00:53:03.294Z,0.00
2018-05-02T00:54:03.933Z,0.00
2018-05-02T00:55:03.788Z,0.00
2018-05-02T00:56:04.461Z,0.00
2018-05-02T00:57:03.515Z,0.00
2018-05-02T00:58:26.013Z,0.00
2018-05-02T00:59:26.109Z,0.00
2018-05-02T01:00:27.316Z,0.00
2018-05-02T01:01:26.749Z,0.00
2018-05-02T01:02:27.788Z,0.00
2018-05-02T01:03:47.172Z,0.00
2018-05-02T01:04:51.669Z,0.00
2018-05-02T01:05:48.715Z,0.00
2018-05-02T01:06:51.384Z,0.00
2018-05-02T01:08:32.998Z,0.00
2018-05-02T01:09:56.161Z,0.00
2018-05-02T01:11:20.599Z,0.00
2018-05-02T01:12:23.530Z,0.00
2018-05-02T01:13:21.594Z,0.00
2018-05-02T01:14:19.106Z,0.00
2018-05-02T01:15:19.997Z,0.00
2018-05-02T01:16:19.893Z,0.00
2018-05-02T01:17:20.419Z,0.00
2018-05-02T01:18:19.559Z,0.00
2018-05-02T01:19:21.210Z,0.00
2018-05-02T01:20:19.516Z,0.00
2018-05-02T01:21:19.791Z,0.00
2018-05-02T01:22:18.765Z,0.00
2018-05-02T01:23:41.879Z,0.00
2018-05-02T01:24:42.487Z,0.00
2018-05-02T01:26:05.281Z,0.00
2018-05-02T01:27:05.043Z,0.00
2018-05-02T01:28:05.576Z,0.00
2018-05-02T01:29:05.363Z,0.00
2018-05-02T01:30:26.113Z,0.00
2018-05-02T01:31:25.944Z,0.00
2018-05-02T01:32:47.311Z,0.00
2018-05-02T01:33:48.528Z,0.00
2018-05-02T01:34:48.018Z,0.00
2018-05-02T01:35:48.031Z,0.00
2018-05-02T01:36:48.072Z,0.00
2018-05-02T01:37:48.179Z,0.00
2018-05-02T01:38:48.932Z,0.00
2018-05-02T01:39:47.861Z,0.00
2018-05-02T01:40:47.564Z,0.00
2018-05-02T01:41:48.396Z,0.00
2018-05-02T01:42:47.948Z,0.00
2018-05-02T01:43:47.662Z,0.00
2018-05-02T01:44:48.593Z,0.00
2018-05-02T01:45:48.124Z,0.00
2018-05-02T01:46:47.878Z,0.00
2018-05-02T01:47:47.949Z,0.00
2018-05-02T01:48:47.512Z,0.00
2018-05-02T01:49:48.243Z,0.00
2018-05-02T01:50:48.266Z,0.00
2018-05-02T01:51:48.293Z,0.00
2018-05-02T01:52:47.707Z,0.00
2018-05-02T01:53:47.402Z,0.00
2018-05-02T01:54:48.455Z,0.00
2018-05-02T01:55:48.561Z,0.00
2018-05-02T01:56:48.123Z,0.00
2018-05-02T01:57:47.926Z,0.00
2018-05-02T01:58:47.916Z,0.00
2018-05-02T01:59:47.782Z,0.00
2018-05-02T02:00:48.753Z,0.00
2018-05-02T02:01:47.762Z,0.00
2018-05-02T02:02:48.262Z,0.00
2018-05-02T02:03:48.138Z,0.00
2018-05-02T02:04:48.149Z,0.00
2018-05-02T02:05:48.286Z,0.00
2018-05-02T02:06:48.143Z,0.00
2018-05-02T02:07:47.811Z,0.00
2018-05-02T02:08:47.515Z,0.00
2018-05-02T02:09:48.138Z,0.00
2018-05-02T02:10:47.684Z,0.00
2018-05-02T02:11:49.140Z,0.00
2018-05-02T02:12:47.535Z,0.00
2018-05-02T02:13:48.181Z,0.00
2018-05-02T02:14:47.651Z,0.00
2018-05-02T02:16:08.320Z,0.00
2018-05-02T02:17:08.887Z,0.00
2018-05-02T02:18:29.009Z,0.00
2018-05-02T02:19:30.126Z,0.00
2018-05-02T02:20:29.699Z,0.00
2018-05-02T02:21:29.179Z,0.00
2018-05-02T02:22:30.045Z,0.00
2018-05-02T02:23:30.019Z,0.00
2018-05-02T02:24:29.475Z,0.00
2018-05-02T02:25:30.915Z,0.00
2018-05-02T02:26:29.732Z,0.00
2018-05-02T02:27:50.671Z,0.00
2018-05-02T02:28:51.470Z,0.00
2018-05-02T02:29:52.156Z,0.00
2018-05-02T02:30:51.093Z,0.00
2018-05-02T02:31:50.940Z,0.00
2018-05-02T02:32:51.456Z,0.00
2018-05-02T02:33:51.510Z,0.00
2018-05-02T02:34:51.396Z,0.00
2018-05-02T02:35:51.455Z,0.00
2018-05-02T02:36:51.398Z,0.00
2018-05-02T02:37:51.029Z,0.00
2018-05-02T02:38:51.255Z,0.00
2018-05-02T02:39:50.707Z,0.00
2018-05-02T02:40:51.291Z,0.00
2018-05-02T02:41:50.970Z,0.00
2018-05-02T02:42:51.015Z,0.00
2018-05-02T02:43:50.545Z,0.00
2018-05-02T02:44:51.215Z,0.00
2018-05-02T02:45:50.907Z,0.00
2018-05-02T02:46:51.069Z,0.00
2018-05-02T02:47:51.096Z,0.00
2018-05-02T02:49:11.015Z,0.00
2018-05-02T02:50:12.019Z,0.00
2018-05-02T02:51:32.319Z,0.00
2018-05-02T02:52:32.031Z,0.00
2018-05-02T02:53:33.059Z,0.00
2018-05-02T02:54:33.087Z,0.00
2018-05-02T02:55:32.612Z,0.00
2018-05-02T02:56:32.672Z,0.00
2018-05-02T02:57:32.802Z,0.00
2018-05-02T02:58:32.303Z,0.00
2018-05-02T02:59:32.918Z,0.00
2018-05-02T03:00:32.934Z,0.00
2018-05-02T03:01:32.893Z,0.00
2018-05-02T03:02:32.522Z,0.00
2018-05-02T03:03:33.160Z,0.00
2018-05-02T03:04:53.449Z,0.00
2018-05-02T03:05:54.300Z,0.00
2018-05-02T03:07:35.190Z,1.00
2018-05-02T03:08:36.398Z,1.00
2018-05-02T03:09:35.423Z,0.00
2018-05-02T03:10:35.551Z,1.00
2018-05-02T03:11:35.591Z,1.00
2018-05-02T03:12:35.489Z,1.00
2018-05-02T03:13:35.007Z,1.00
2018-05-02T03:14:36.077Z,1.00
2018-05-02T03:15:35.603Z,2.00
2018-05-02T03:16:35.326Z,2.00
2018-05-02T03:17:35.085Z,2.00
2018-05-02T03:18:54.834Z,3.00
2018-05-02T03:20:16.184Z,3.00
2018-05-02T03:21:15.847Z,4.00
2018-05-02T03:22:16.568Z,4.00
2018-05-02T03:23:37.500Z,5.00
2018-05-02T03:24:37.039Z,6.00
2018-05-02T03:25:37.853Z,7.00
2018-05-02T03:26:37.388Z,8.00
2018-05-02T03:27:37.412Z,9.00
2018-05-02T03:28:37.041Z,10.00
2018-05-02T03:29:37.810Z,12.00
2018-05-02T03:30:37.697Z,14.00
2018-05-02T03:31:37.271Z,17.00
2018-05-02T03:32:38.302Z,20.00
2018-05-02T03:33:37.904Z,22.00
2018-05-02T03:35:00.721Z,28.00
2018-05-02T03:36:21.858Z,34.00
2018-05-02T03:37:22.793Z,38.00
2018-05-02T03:38:22.650Z,44.00
2018-05-02T03:39:22.208Z,51.00
2018-05-02T03:40:21.936Z,58.00
2018-05-02T03:41:43.299Z,68.00
2018-05-02T03:42:43.400Z,77.00
2018-05-02T03:43:43.381Z,88.00
2018-05-02T03:45:05.979Z,104.00
2018-05-02T03:46:06.806Z,116.00
2018-05-02T03:47:06.713Z,130.00
2018-05-02T03:48:06.401Z,144.00
2018-05-02T03:49:06.403Z,160.00
2018-05-02T03:50:46.516Z,190.00
2018-05-02T03:51:47.196Z,210.00
2018-05-02T03:52:46.916Z,231.00
2018-05-02T03:53:46.615Z,253.00
2018-05-02T03:54:47.273Z,277.00
2018-05-02T03:55:46.988Z,301.00
2018-05-02T03:56:47.177Z,328.00
2018-05-02T03:57:46.712Z,355.00
2018-05-02T03:58:47.483Z,386.00
2018-05-02T03:59:47.187Z,417.00
2018-05-02T04:00:46.838Z,448.00
2018-05-02T04:01:47.416Z,483.00
2018-05-02T04:02:46.995Z,518.00
2018-05-02T04:03:46.700Z,555.00
2018-05-02T04:04:47.652Z,593.00
2018-05-02T04:06:07.899Z,649.00
2018-05-02T04:07:07.907Z,691.00
2018-05-02T04:08:07.434Z,735.00
2018-05-02T04:09:28.813Z,795.00
2018-05-02T04:10:29.509Z,841.00
2018-05-02T04:11:29.256Z,888.00
2018-05-02T04:12:28.823Z,937.00
2018-05-02T04:13:29.643Z,988.00
2018-05-02T04:14:29.280Z,1038.00
2018-05-02T04:15:50.184Z,1109.00
2018-05-02T04:16:51.258Z,1162.00
2018-05-02T04:17:50.073Z,1218.00
2018-05-02T04:18:50.837Z,1272.00
2018-05-02T04:19:50.861Z,1327.00
2018-05-02T04:20:51.025Z,1382.00
2018-05-02T04:21:50.230Z,1439.00
2018-05-02T04:22:50.840Z,1497.00
2018-05-02T04:23:50.958Z,1554.00
2018-05-02T04:24:51.382Z,1615.00
2018-05-02T04:25:51.013Z,1672.00
2018-05-02T04:26:51.158Z,1731.00
2018-05-02T04:27:50.813Z,1790.00
2018-05-02T04:28:51.104Z,1849.00
2018-05-02T04:29:50.323Z,1912.00
2018-05-02T04:30:50.516Z,1975.00
2018-05-02T04:31:50.121Z,2037.00
2018-05-02T04:32:51.164Z,2100.00
2018-05-02T04:34:33.780Z,2207.00
2018-05-02T04:35:33.511Z,2270.00
2018-05-02T04:36:33.100Z,2406.00
2018-05-02T04:37:33.817Z,2613.00
2018-05-02T04:38:33.686Z,2667.00
2018-05-02T04:39:33.755Z,2661.00
2018-05-02T04:40:33.908Z,3023.00
2018-05-02T04:41:33.608Z,4122.00
2018-05-02T04:42:54.343Z,3969.00
2018-05-02T04:43:55.353Z,3744.00
2018-05-02T04:44:55.358Z,2991.00
2018-05-02T04:45:55.383Z,3038.00
2018-05-02T04:46:55.370Z,3100.00
2018-05-02T04:47:55.563Z,3036.00
2018-05-02T04:48:56.696Z,3031.00
2018-05-02T04:50:16.154Z,3069.00
2018-05-02T04:51:15.930Z,3121.00
2018-05-02T04:52:37.852Z,3183.00
2018-05-02T04:53:38.892Z,3345.00
2018-05-02T04:54:37.911Z,3653.00
2018-05-02T04:55:38.224Z,3563.00
2018-05-02T04:56:38.181Z,3674.00
2018-05-02T04:57:38.342Z,3844.00
2018-05-02T04:58:50.982Z,3549.00
2018-05-02T04:59:38.825Z,3542.00
2018-05-02T05:00:38.221Z,3561.00
2018-05-02T05:01:38.058Z,3621.00
2018-05-02T05:02:37.854Z,3704.00
2018-05-02T05:03:58.176Z,3765.00
2018-05-02T05:04:59.107Z,3763.00
2018-05-02T05:06:22.249Z,3838.00
2018-05-02T05:07:23.279Z,3921.00
2018-05-02T05:08:22.135Z,3944.00
2018-05-02T05:09:22.456Z,3984.00
2018-05-02T05:10:22.892Z,4068.00
2018-05-02T05:11:44.022Z,4094.00
2018-05-02T05:13:06.386Z,4280.00
2018-05-02T05:14:07.233Z,5824.00
2018-05-02T05:15:06.977Z,6548.00
2018-05-02T05:16:07.111Z,4839.00
2018-05-02T05:17:07.320Z,4603.00
2018-05-02T05:18:07.589Z,4638.00
2018-05-02T05:19:07.319Z,4932.00
2018-05-02T05:20:06.983Z,5731.00
2018-05-02T05:21:07.110Z,5936.00
2018-05-02T05:22:07.496Z,6141.00
2018-05-02T05:23:07.278Z,5762.00
2018-05-02T05:24:28.465Z,5055.00
2018-05-02T05:25:49.395Z,5839.00
2018-05-02T05:26:50.561Z,7935.00
2018-05-02T05:28:10.450Z,8697.00
2018-05-02T05:29:10.365Z,8834.00
2018-05-02T05:30:31.182Z,9003.00
2018-05-02T05:31:32.168Z,9251.00
2018-05-02T05:32:52.944Z,9474.00
2018-05-02T05:34:13.478Z,9221.00
2018-05-02T05:35:15.645Z,9311.00
2018-05-02T05:36:13.834Z,9525.00
2018-05-02T05:37:56.048Z,9071.00
2018-05-02T05:39:16.821Z,8915.00
2018-05-02T05:40:17.911Z,8822.00
2018-05-02T05:41:17.929Z,9025.00
2018-05-02T05:42:17.425Z,9255.00
2018-05-02T05:43:20.151Z,9238.00
2018-05-02T05:44:17.321Z,9157.00
2018-05-02T05:45:37.647Z,9187.00
2018-05-02T05:47:21.547Z,9058.00
2018-05-02T05:48:22.734Z,8932.00
2018-05-02T05:49:22.470Z,8926.00
2018-05-02T05:50:22.090Z,9002.00
2018-05-02T05:51:20.830Z,9060.00
2018-05-02T05:52:21.003Z,9141.00
2018-05-02T05:53:21.345Z,9172.00
2018-05-02T05:54:21.120Z,9253.00
2018-05-02T05:55:20.927Z,9353.00
2018-05-02T05:56:42.420Z,9469.00
2018-05-02T05:57:42.069Z,9559.00
2018-05-02T05:58:42.793Z,9610.00
2018-05-02T05:59:42.544Z,9696.00
2018-05-02T06:00:44.253Z,9762.00
2018-05-02T06:01:42.399Z,9849.00
2018-05-02T06:02:42.734Z,9990.00
2018-05-02T06:03:42.672Z,10122.00
2018-05-02T06:05:03.657Z,10330.00
2018-05-02T06:06:04.567Z,10441.00
2018-05-02T06:07:04.992Z,10581.00
2018-05-02T06:08:05.680Z,10673.00
2018-05-02T06:09:05.326Z,10877.00
2018-05-02T06:10:04.251Z,10985.00
2018-05-02T06:11:04.506Z,10972.00
2018-05-02T06:12:25.059Z,11049.00
2018-05-02T06:13:49.227Z,11409.00
2018-05-02T06:14:49.289Z,11633.00
2018-05-02T06:15:51.429Z,11653.00
2018-05-02T06:17:19.212Z,11713.00
2018-05-02T06:18:26.590Z,11574.00
2018-05-02T06:19:16.607Z,11534.00
2018-05-02T06:20:17.395Z,11597.00
2018-05-02T06:21:38.196Z,11707.00
2018-05-02T06:22:37.910Z,11806.00
2018-05-02T06:23:38.569Z,11919.00
2018-05-02T06:24:38.346Z,12010.00
2018-05-02T06:25:38.170Z,12143.00
2018-05-02T06:26:38.283Z,12232.00
2018-05-02T06:27:38.631Z,12315.00
2018-05-02T06:28:38.310Z,12484.00
2018-05-02T06:29:38.973Z,12645.00
2018-05-02T06:30:37.820Z,12817.00
2018-05-02T06:31:39.327Z,13046.00
2018-05-02T06:32:38.122Z,13389.00
2018-05-02T06:33:38.233Z,13825.00
2018-05-02T06:34:38.239Z,14473.00
2018-05-02T06:35:39.093Z,14838.00
2018-05-02T06:36:38.136Z,20296.00
2018-05-02T06:37:38.420Z,39744.00
2018-05-02T06:38:38.236Z,64448.00
2018-05-02T06:39:38.067Z,65535.00
2018-05-02T06:40:38.370Z,65535.00
2018-05-02T06:41:38.426Z,51840.00
2018-05-02T06:42:38.378Z,44944.00
2018-05-02T06:43:38.673Z,44360.00
2018-05-02T06:44:38.398Z,42160.00
2018-05-02T06:45:59.581Z,41296.00
2018-05-02T06:47:00.358Z,40968.00
2018-05-02T06:48:00.566Z,40024.00
2018-05-02T06:49:21.756Z,40376.00
2018-05-02T06:50:22.158Z,37864.00
2018-05-02T06:51:21.977Z,36480.00
2018-05-02T06:52:21.742Z,39104.00
2018-05-02T06:53:21.428Z,42616.00
2018-05-02T06:54:22.601Z,44208.00
2018-05-02T06:55:21.296Z,44360.00
2018-05-02T06:56:22.140Z,43912.00
2018-05-02T06:57:22.370Z,43448.00
2018-05-02T06:58:22.464Z,44016.00
2018-05-02T06:59:22.171Z,45400.00
2018-05-02T07:00:22.381Z,45568.00
2018-05-02T07:01:22.154Z,46088.00
2018-05-02T07:02:42.828Z,48816.00
2018-05-02T07:04:03.507Z,48944.00
2018-05-02T07:05:04.881Z,48272.00
2018-05-02T07:06:03.989Z,48888.00
2018-05-02T07:07:03.918Z,48760.00
2018-05-02T07:08:03.828Z,48464.00
2018-05-02T07:09:04.031Z,47504.00
2018-05-02T07:10:26.572Z,46128.00
2018-05-02T07:11:27.446Z,47936.00
2018-05-02T07:12:27.759Z,51056.00
2018-05-02T07:13:27.890Z,51832.00
2018-05-02T07:14:27.069Z,52064.00
2018-05-02T07:15:27.411Z,52992.00
2018-05-02T07:16:27.559Z,54544.00
2018-05-02T07:18:08.340Z,53856.00
2018-05-02T07:19:08.927Z,53848.00
2018-05-02T07:20:29.101Z,55960.00
2018-05-02T07:21:29.083Z,57488.00
2018-05-02T07:22:50.792Z,58696.00
2018-05-02T07:23:52.009Z,58072.00
2018-05-02T07:24:52.171Z,58928.00
2018-05-02T07:25:51.313Z,60056.00
2018-05-02T07:26:51.224Z,59696.00
2018-05-02T07:27:51.333Z,58968.00
2018-05-02T07:29:33.077Z,61184.00
2018-05-02T07:30:55.135Z,61480.00
2018-05-02T07:31:56.337Z,59920.00
2018-05-02T07:32:56.240Z,58616.00
2018-05-02T07:33:55.524Z,59080.00
2018-05-02T07:34:55.388Z,59328.00
2018-05-02T07:35:56.123Z,60584.00
2018-05-02T07:36:56.150Z,61464.00
2018-05-02T07:37:55.070Z,60072.00
2018-05-02T07:39:00.260Z,58688.00
2018-05-02T07:39:56.335Z,59320.00
2018-05-02T07:41:37.703Z,63048.00
2018-05-02T07:42:38.466Z,63088.00
2018-05-02T07:43:38.537Z,60240.00
2018-05-02T07:44:38.190Z,58552.00
2018-05-02T07:45:38.236Z,58800.00
2018-05-02T07:46:58.998Z,64168.00
2018-05-02T07:47:59.204Z,65535.00
2018-05-02T07:48:59.402Z,65535.00
2018-05-02T07:50:19.942Z,64208.00
2018-05-02T07:51:20.595Z,63240.00
2018-05-02T07:52:20.727Z,61768.00
2018-05-02T07:53:20.451Z,61784.00
2018-05-02T07:54:20.565Z,62152.00
2018-05-02T07:55:20.459Z,63376.00
2018-05-02T07:56:22.200Z,63640.00
2018-05-02T07:57:21.302Z,63944.00
2018-05-02T07:58:41.093Z,65136.00
2018-05-02T07:59:41.954Z,63872.00
2018-05-02T08:00:42.098Z,63944.00
2018-05-02T08:01:41.988Z,62592.00
2018-05-02T08:02:42.044Z,65280.00
2018-05-02T08:03:42.093Z,63568.00
2018-05-02T08:04:42.295Z,61320.00
2018-05-02T08:05:42.359Z,59816.00
2018-05-02T08:06:41.183Z,60704.00
2018-05-02T08:07:41.840Z,62600.00
2018-05-02T08:09:02.033Z,63080.00
2018-05-02T08:10:02.954Z,62920.00
2018-05-02T08:11:02.898Z,63216.00
2018-05-02T08:12:02.742Z,62328.00
2018-05-02T08:13:02.919Z,64712.00
2018-05-02T08:14:02.805Z,63800.00
2018-05-02T08:15:02.963Z,64248.00
2018-05-02T08:16:03.324Z,63632.00
2018-05-02T08:17:24.863Z,65535.00
2018-05-02T08:18:23.673Z,65535.00
2018-05-02T08:19:23.670Z,65535.00
2018-05-02T08:20:23.786Z,65535.00
2018-05-02T08:21:23.616Z,65535.00
2018-05-02T08:22:23.648Z,65535.00
2018-05-02T08:23:23.918Z,65535.00
2018-05-02T08:24:23.789Z,65535.00
2018-05-02T08:25:23.686Z,65535.00
2018-05-02T08:26:23.562Z,65535.00
2018-05-02T08:27:23.413Z,65535.00
2018-05-02T08:28:24.705Z,65535.00
2018-05-02T08:29:23.838Z,65535.00
2018-05-02T08:30:23.415Z,65535.00
2018-05-02T08:31:24.094Z,65535.00
2018-05-02T08:32:24.358Z,65535.00
2018-05-02T08:33:24.446Z,65535.00
2018-05-02T08:34:44.912Z,65535.00
2018-05-02T08:35:46.137Z,65535.00
2018-05-02T08:36:45.353Z,65535.00
2018-05-02T08:37:45.659Z,65535.00
2018-05-02T08:38:45.939Z,65535.00
2018-05-02T08:39:45.714Z,65535.00
2018-05-02T08:41:06.609Z,65535.00
2018-05-02T08:42:06.359Z,65535.00
2018-05-02T08:43:06.884Z,65535.00
2018-05-02T08:44:06.766Z,65535.00
2018-05-02T08:45:08.805Z,65535.00
2018-05-02T08:46:07.885Z,65535.00
2018-05-02T08:47:27.673Z,65535.00
2018-05-02T08:48:48.265Z,65535.00
2018-05-02T08:49:48.341Z,65535.00
2018-05-02T08:50:49.472Z,65535.00
2018-05-02T08:51:48.750Z,65535.00
2018-05-02T08:52:49.004Z,65535.00
2018-05-02T08:53:49.260Z,65535.00
2018-05-02T08:54:49.520Z,65535.00
2018-05-02T08:55:48.419Z,65535.00
2018-05-02T08:56:49.075Z,65535.00
2018-05-02T08:58:30.427Z,65535.00
2018-05-02T08:59:30.633Z,65535.00
2018-05-02T09:00:31.076Z,65535.00
2018-05-02T09:01:31.165Z,65535.00
2018-05-02T09:02:30.065Z,65535.00
2018-05-02T09:03:31.358Z,65535.00
2018-05-02T09:04:30.223Z,65535.00
2018-05-02T09:05:30.532Z,65535.00
2018-05-02T09:06:30.455Z,65535.00
2018-05-02T09:07:30.858Z,65535.00
2018-05-02T09:08:31.091Z,65535.00
2018-05-02T09:09:30.946Z,65535.00
2018-05-02T09:10:30.818Z,65535.00
2018-05-02T09:11:30.914Z,65535.00
2018-05-02T09:12:30.970Z,65535.00
2018-05-02T09:13:31.577Z,65535.00
2018-05-02T09:14:30.408Z,65535.00
2018-05-02T09:15:30.626Z,65535.00
2018-05-02T09:16:31.553Z,65535.00
2018-05-02T09:17:30.544Z,65535.00
2018-05-02T09:18:51.803Z,65535.00
2018-05-02T09:19:51.904Z,65535.00
2018-05-02T09:20:51.824Z,65535.00
2018-05-02T09:21:51.534Z,65535.00
2018-05-02T09:22:52.315Z,65535.00
2018-05-02T09:23:52.399Z,65535.00
2018-05-02T09:24:52.403Z,65535.00
2018-05-02T09:25:52.204Z,65535.00
2018-05-02T09:26:52.421Z,65535.00
2018-05-02T09:27:52.218Z,65535.00
2018-05-02T09:28:52.385Z,65535.00
2018-05-02T09:29:52.650Z,65535.00
2018-05-02T09:31:34.485Z,65535.00
2018-05-02T09:32:34.171Z,40120.00
2018-05-02T09:33:33.961Z,30536.00
2018-05-02T09:34:34.063Z,65535.00
2018-05-02T09:35:34.318Z,24152.00
2018-05-02T09:36:55.375Z,65535.00
2018-05-02T09:37:55.432Z,65535.00
2018-05-02T09:38:55.431Z,65535.00
2018-05-02T09:39:55.576Z,42248.00
2018-05-02T09:40:55.319Z,41304.00
2018-05-02T09:41:55.494Z,49736.00
2018-05-02T09:42:55.219Z,65535.00
2018-05-02T09:43:55.000Z,65535.00
2018-05-02T09:44:56.082Z,65535.00
2018-05-02T09:45:56.277Z,65535.00
2018-05-02T09:46:55.508Z,64232.00
2018-05-02T09:47:55.280Z,34848.00
2018-05-02T09:48:56.021Z,35456.00
2018-05-02T09:49:57.269Z,33592.00
2018-05-02T09:50:54.951Z,52840.00
2018-05-02T09:52:04.224Z,55616.00
2018-05-02T09:52:55.807Z,65535.00
2018-05-02T09:54:17.674Z,65535.00
2018-05-02T09:55:18.037Z,56704.00
2018-05-02T09:56:17.967Z,45848.00
2018-05-02T09:57:17.958Z,27984.00
2018-05-02T09:58:18.211Z,37040.00
2018-05-02T09:59:17.881Z,50592.00
2018-05-02T10:00:18.220Z,57696.00
2018-05-02T10:01:17.745Z,52760.00
2018-05-02T10:02:17.992Z,53304.00
2018-05-02T10:03:17.964Z,52416.00
2018-05-02T10:04:39.191Z,65535.00
2018-05-02T10:05:39.601Z,65535.00
2018-05-02T10:06:39.582Z,53512.00
2018-05-02T10:07:39.482Z,55536.00
2018-05-02T10:10:52.193Z,61208.00
2018-05-02T10:11:53.270Z,48352.00
2018-05-02T10:12:53.409Z,38664.00
2018-05-02T10:13:53.077Z,57592.00
2018-05-02T10:15:13.515Z,46544.00
2018-05-02T10:16:13.334Z,49616.00
2018-05-02T10:17:54.671Z,52768.00
2018-05-02T10:18:54.485Z,54488.00
2018-05-02T10:19:54.348Z,57344.00
2018-05-02T10:20:54.646Z,64504.00
2018-05-02T10:21:54.493Z,61024.00
2018-05-02T10:22:54.326Z,51128.00
2018-05-02T10:24:28.543Z,31976.00
2018-05-02T10:26:11.119Z,65535.00
2018-05-02T10:27:11.044Z,57456.00
2018-05-02T10:28:31.695Z,57672.00
2018-05-02T10:29:31.837Z,56144.00
2018-05-02T10:30:31.627Z,47584.00
2018-05-02T10:32:13.492Z,65535.00
2018-05-02T10:33:14.073Z,33208.00
2018-05-02T10:34:13.893Z,46960.00
2018-05-02T10:35:14.485Z,65072.00
2018-05-02T10:36:13.649Z,57832.00
2018-05-02T10:37:13.773Z,65535.00
2018-05-02T10:38:13.556Z,54360.00
2018-05-02T10:39:13.849Z,65535.00
2018-05-02T10:40:34.802Z,46216.00
2018-05-02T10:41:35.947Z,32096.00
2018-05-02T10:42:35.709Z,29544.00
2018-05-02T10:43:35.778Z,65535.00
2018-05-02T10:44:35.676Z,65535.00
2018-05-02T10:45:35.490Z,33864.00
2018-05-02T10:46:35.271Z,65535.00
2018-05-02T10:47:35.537Z,51656.00
2018-05-02T10:48:35.915Z,54408.00
2018-05-02T10:49:37.644Z,65535.00
2018-05-02T10:51:01.640Z,65535.00
2018-05-02T10:52:02.990Z,65535.00
2018-05-02T10:53:02.629Z,65535.00
2018-05-02T10:54:02.488Z,65535.00
2018-05-02T10:55:02.791Z,65535.00
2018-05-02T10:56:02.239Z,65535.00
2018-05-02T10:57:02.115Z,65535.00
2018-05-02T10:58:02.011Z,65535.00
2018-05-02T10:59:01.840Z,31952.00
2018-05-02T11:00:01.976Z,27128.00
2018-05-02T11:01:02.115Z,65535.00
2018-05-02T11:02:23.305Z,65535.00
2018-05-02T11:03:23.400Z,65535.00
2018-05-02T11:04:23.128Z,65535.00
2018-05-02T11:05:23.489Z,26648.00
2018-05-02T11:06:24.380Z,29248.00
2018-05-02T11:07:23.177Z,65535.00
2018-05-02T11:08:23.101Z,65535.00
2018-05-02T11:09:23.794Z,33752.00
2018-05-02T11:10:23.755Z,25032.00
2018-05-02T11:11:24.677Z,30608.00
2018-05-02T11:13:06.282Z,65535.00
2018-05-02T11:14:06.092Z,65535.00
2018-05-02T11:15:27.599Z,65535.00
2018-05-02T11:16:27.348Z,65535.00
2018-05-02T11:17:48.568Z,65535.00
2018-05-02T11:18:48.760Z,27592.00
2018-05-02T11:19:49.000Z,23976.00
2018-05-02T11:20:48.756Z,28824.00
2018-05-02T11:21:48.618Z,65535.00
2018-05-02T11:22:48.635Z,65535.00
2018-05-02T11:24:09.856Z,65535.00
2018-05-02T11:25:10.068Z,65535.00
2018-05-02T11:26:10.209Z,65535.00
2018-05-02T11:27:09.110Z,65535.00
2018-05-02T11:28:52.724Z,65535.00
2018-05-02T11:30:14.084Z,65535.00
2018-05-02T11:31:13.859Z,65535.00
2018-05-02T11:32:14.729Z,27120.00
2018-05-02T11:33:14.605Z,65535.00
2018-05-02T11:34:14.472Z,65535.00
2018-05-02T11:35:34.937Z,65535.00
2018-05-02T11:36:35.680Z,65535.00
2018-05-02T11:37:35.731Z,65535.00
2018-05-02T11:38:56.894Z,65535.00
2018-05-02T11:39:57.120Z,65535.00
2018-05-02T11:40:57.407Z,65535.00
2018-05-02T11:41:57.247Z,65535.00
2018-05-02T11:42:56.983Z,65535.00
2018-05-02T11:43:57.283Z,58688.00
2018-05-02T11:44:56.332Z,65535.00
2018-05-02T11:45:56.252Z,65535.00
2018-05-02T11:46:57.200Z,65535.00
2018-05-02T11:47:57.038Z,65535.00
2018-05-02T11:49:17.791Z,65535.00
2018-05-02T11:50:18.098Z,65535.00
2018-05-02T11:51:18.010Z,65535.00
2018-05-02T11:52:39.867Z,65535.00
2018-05-02T11:53:39.832Z,65535.00
2018-05-02T11:54:39.727Z,65535.00
2018-05-02T11:55:39.661Z,65535.00
2018-05-02T11:56:39.510Z,25392.00
2018-05-02T11:57:39.377Z,65535.00
2018-05-02T11:58:40.424Z,30744.00
2018-05-02T11:59:39.848Z,65535.00
2018-05-02T12:00:40.055Z,65535.00
2018-05-02T12:01:40.213Z,65535.00
2018-05-02T12:02:40.542Z,65535.00
2018-05-02T12:03:40.307Z,65535.00
2018-05-02T12:04:40.186Z,65535.00
2018-05-02T12:05:40.527Z,65535.00
2018-05-02T12:06:39.245Z,65535.00
2018-05-02T12:08:01.534Z,65535.00
2018-05-02T12:09:01.674Z,65535.00
2018-05-02T12:10:01.537Z,19824.00
2018-05-02T12:11:01.513Z,20568.00
2018-05-02T12:12:01.723Z,65535.00
2018-05-02T12:13:01.539Z,65535.00
2018-05-02T12:14:01.821Z,65535.00
2018-05-02T12:15:01.704Z,65535.00
2018-05-02T12:16:22.891Z,65535.00
2018-05-02T12:17:22.893Z,65535.00
2018-05-02T12:19:04.482Z,65535.00
2018-05-02T12:20:04.747Z,65535.00
2018-05-02T12:21:47.959Z,65535.00
2018-05-02T12:22:47.790Z,65535.00
2018-05-02T12:24:08.785Z,65535.00
2018-05-02T12:25:09.544Z,65535.00
2018-05-02T12:26:09.898Z,65535.00
2018-05-02T12:27:09.978Z,65535.00
2018-05-02T12:28:31.305Z,55448.00
2018-05-02T12:29:30.612Z,65535.00
2018-05-02T12:30:52.111Z,65535.00
2018-05-02T12:31:51.869Z,65535.00
2018-05-02T12:32:51.975Z,65535.00
2018-05-02T12:33:52.359Z,65535.00
2018-05-02T12:34:52.611Z,65535.00
2018-05-02T12:35:52.872Z,28616.00
2018-05-02T12:36:51.758Z,27176.00
2018-05-02T12:38:13.932Z,65535.00
2018-05-02T12:39:13.900Z,31704.00
2018-05-02T12:40:13.998Z,65535.00
2018-05-02T12:41:14.349Z,65535.00
2018-05-02T12:42:14.737Z,65535.00
2018-05-02T12:43:13.941Z,65535.00
2018-05-02T12:44:13.904Z,65535.00
2018-05-02T12:45:14.236Z,65535.00
2018-05-02T12:46:14.534Z,65535.00
2018-05-02T12:47:15.045Z,65535.00
2018-05-02T12:48:14.306Z,65535.00
2018-05-02T12:49:14.992Z,65535.00
2018-05-02T12:50:14.146Z,65535.00
2018-05-02T12:51:14.401Z,65535.00
2018-05-02T12:52:14.249Z,65535.00
2018-05-02T12:53:14.367Z,65535.00
2018-05-02T12:54:14.409Z,65535.00
2018-05-02T12:55:14.518Z,65535.00
2018-05-02T12:56:36.137Z,61592.00
2018-05-02T12:57:35.478Z,65535.00
2018-05-02T12:59:17.849Z,65535.00
2018-05-02T13:00:17.765Z,65535.00
2018-05-02T13:01:18.081Z,64096.00
2018-05-02T13:02:18.465Z,65535.00
2018-05-02T13:03:19.211Z,65535.00